sensor_id;sensor_type;location;lat;lon;timestamp;P1;durP1;ratioP1;P2;durP2;ratioP2
57241;SDS011;43095;53.302;5.786;2023-01-24T00:01:59;16.20;;;11.73;;
57241;SDS011;43095;53.302;5.786;2023-01-24T00:04:44;18.38;;;13.05;;
57241;SDS011;43095;53.302;5.786;2023-01-24T00:07:15;17.60;;;11.90;;
57241;SDS011;43095;53.302;5.786;2023-01-24T00:09:49;16.55;;;11.88;;
57241;SDS011;43095;53.302;5.786;2023-01-24T00:12:31;17.90;;;11.88;;
57241;SDS011;43095;53.302;5.786;2023-01-24T00:14:59;19.50;;;12.98;;
57241;SDS011;43095;53.302;5.786;2023-01-24T00:17:29;18.65;;;12.80;;
57241;SDS011;43095;53.302;5.786;2023-01-24T00:19:57;16.23;;;12.02;;
57241;SDS011;43095;53.302;5.786;2023-01-24T00:25:09;17.40;;;12.07;;
57241;SDS011;43095;53.302;5.786;2023-01-24T00:27:41;16.97;;;12.63;;
57241;SDS011;43095;53.302;5.786;2023-01-24T00:30:34;16.00;;;11.40;;
57241;SDS011;43095;53.302;5.786;2023-01-24T00:33:04;17.65;;;11.80;;
57241;SDS011;43095;53.302;5.786;2023-01-24T00:35:48;19.15;;;13.52;;
57241;SDS011;43095;53.302;5.786;2023-01-24T00:50:10;17.23;;;11.32;;
57241;SDS011;43095;53.302;5.786;2023-01-24T00:52:38;18.65;;;12.98;;
57241;SDS011;43095;53.302;5.786;2023-01-24T00:55:08;18.30;;;13.18;;
57241;SDS011;43095;53.302;5.786;2023-01-24T00:57:36;19.17;;;13.13;;
57241;SDS011;43095;53.302;5.786;2023-01-24T01:00:07;17.42;;;12.75;;
57241;SDS011;43095;53.302;5.786;2023-01-24T01:05:41;21.17;;;14.35;;
57241;SDS011;43095;53.302;5.786;2023-01-24T01:08:20;20.45;;;14.43;;
57241;SDS011;43095;53.302;5.786;2023-01-24T01:10:50;20.08;;;14.35;;
57241;SDS011;43095;53.302;5.786;2023-01-24T01:13:36;19.33;;;14.00;;
57241;SDS011;43095;53.302;5.786;2023-01-24T01:16:04;18.02;;;13.07;;
57241;SDS011;43095;53.302;5.786;2023-01-24T01:18:43;20.25;;;13.75;;
57241;SDS011;43095;53.302;5.786;2023-01-24T01:21:21;19.88;;;14.35;;
57241;SDS011;43095;53.302;5.786;2023-01-24T01:23:59;22.02;;;14.68;;
57241;SDS011;43095;53.302;5.786;2023-01-24T01:26:42;21.45;;;14.60;;
57241;SDS011;43095;53.302;5.786;2023-01-24T01:29:58;20.38;;;14.05;;
57241;SDS011;43095;53.302;5.786;2023-01-24T01:32:34;22.92;;;14.52;;
57241;SDS011;43095;53.302;5.786;2023-01-24T01:35:31;19.73;;;14.02;;
57241;SDS011;43095;53.302;5.786;2023-01-24T01:38:01;20.42;;;14.13;;
57241;SDS011;43095;53.302;5.786;2023-01-24T01:40:32;22.00;;;14.70;;
57241;SDS011;43095;53.302;5.786;2023-01-24T01:43:02;20.52;;;14.23;;
57241;SDS011;43095;53.302;5.786;2023-01-24T01:48:37;20.77;;;14.55;;
57241;SDS011;43095;53.302;5.786;2023-01-24T01:51:22;19.48;;;13.70;;
57241;SDS011;43095;53.302;5.786;2023-01-24T01:54:04;19.25;;;13.13;;
57241;SDS011;43095;53.302;5.786;2023-01-24T01:56:38;21.85;;;14.63;;
57241;SDS011;43095;53.302;5.786;2023-01-24T01:59:32;21.48;;;14.65;;
57241;SDS011;43095;53.302;5.786;2023-01-24T02:02:24;22.48;;;14.20;;
57241;SDS011;43095;53.302;5.786;2023-01-24T02:04:56;22.45;;;15.07;;
57241;SDS011;43095;53.302;5.786;2023-01-24T02:11:16;22.73;;;15.90;;
57241;SDS011;43095;53.302;5.786;2023-01-24T02:14:07;21.50;;;14.73;;
57241;SDS011;43095;53.302;5.786;2023-01-24T02:19:31;23.90;;;15.98;;
57241;SDS011;43095;53.302;5.786;2023-01-24T02:22:31;19.40;;;13.25;;
57241;SDS011;43095;53.302;5.786;2023-01-24T02:28:10;21.70;;;14.55;;
57241;SDS011;43095;53.302;5.786;2023-01-24T02:30:48;21.80;;;14.90;;
57241;SDS011;43095;53.302;5.786;2023-01-24T02:33:21;26.40;;;15.10;;
57241;SDS011;43095;53.302;5.786;2023-01-24T02:39:08;20.65;;;14.18;;
57241;SDS011;43095;53.302;5.786;2023-01-24T02:41:46;22.42;;;14.82;;
57241;SDS011;43095;53.302;5.786;2023-01-24T02:47:25;21.25;;;14.60;;
57241;SDS011;43095;53.302;5.786;2023-01-24T02:50:03;22.00;;;14.73;;
57241;SDS011;43095;53.302;5.786;2023-01-24T02:52:37;21.30;;;14.30;;
57241;SDS011;43095;53.302;5.786;2023-01-24T02:55:25;23.08;;;14.80;;
57241;SDS011;43095;53.302;5.786;2023-01-24T02:57:58;22.20;;;14.38;;
57241;SDS011;43095;53.302;5.786;2023-01-24T03:00:48;19.35;;;13.65;;
57241;SDS011;43095;53.302;5.786;2023-01-24T03:03:24;23.77;;;15.23;;
57241;SDS011;43095;53.302;5.786;2023-01-24T03:06:11;23.08;;;15.38;;
57241;SDS011;43095;53.302;5.786;2023-01-24T03:08:43;19.83;;;13.85;;
57241;SDS011;43095;53.302;5.786;2023-01-24T03:11:33;21.48;;;14.52;;
57241;SDS011;43095;53.302;5.786;2023-01-24T03:14:07;22.83;;;14.90;;
57241;SDS011;43095;53.302;5.786;2023-01-24T03:16:56;19.08;;;13.60;;
57241;SDS011;43095;53.302;5.786;2023-01-24T03:19:43;19.67;;;12.93;;
57241;SDS011;43095;53.302;5.786;2023-01-24T03:22:29;21.00;;;13.93;;
57241;SDS011;43095;53.302;5.786;2023-01-24T03:25:17;19.48;;;13.25;;
57241;SDS011;43095;53.302;5.786;2023-01-24T03:28:03;20.77;;;14.65;;
57241;SDS011;43095;53.302;5.786;2023-01-24T03:30:51;21.15;;;14.52;;
57241;SDS011;43095;53.302;5.786;2023-01-24T03:33:38;21.42;;;14.43;;
57241;SDS011;43095;53.302;5.786;2023-01-24T03:36:24;22.98;;;15.02;;
57241;SDS011;43095;53.302;5.786;2023-01-24T03:39:00;21.15;;;12.98;;
57241;SDS011;43095;53.302;5.786;2023-01-24T03:41:46;22.58;;;14.52;;
57241;SDS011;43095;53.302;5.786;2023-01-24T03:44:14;21.08;;;14.15;;
57241;SDS011;43095;53.302;5.786;2023-01-24T03:46:47;21.95;;;14.77;;
57241;SDS011;43095;53.302;5.786;2023-01-24T03:49:22;19.58;;;13.80;;
57241;SDS011;43095;53.302;5.786;2023-01-24T03:52:11;19.40;;;12.43;;
57241;SDS011;43095;53.302;5.786;2023-01-24T03:55:04;19.93;;;13.33;;
57241;SDS011;43095;53.302;5.786;2023-01-24T03:57:34;19.95;;;13.48;;
57241;SDS011;43095;53.302;5.786;2023-01-24T04:00:07;17.88;;;12.88;;
57241;SDS011;43095;53.302;5.786;2023-01-24T04:02:53;19.42;;;13.50;;
57241;SDS011;43095;53.302;5.786;2023-01-24T04:05:24;18.20;;;12.82;;
57241;SDS011;43095;53.302;5.786;2023-01-24T04:07:56;21.60;;;14.82;;
57241;SDS011;43095;53.302;5.786;2023-01-24T04:10:35;20.60;;;14.13;;
57241;SDS011;43095;53.302;5.786;2023-01-24T04:13:13;19.45;;;12.60;;
57241;SDS011;43095;53.302;5.786;2023-01-24T04:15:49;20.75;;;12.95;;
57241;SDS011;43095;53.302;5.786;2023-01-24T04:19:13;18.17;;;12.68;;
57241;SDS011;43095;53.302;5.786;2023-01-24T04:21:42;18.35;;;12.95;;
57241;SDS011;43095;53.302;5.786;2023-01-24T04:24:38;18.77;;;12.90;;
57241;SDS011;43095;53.302;5.786;2023-01-24T04:27:12;19.83;;;12.82;;
57241;SDS011;43095;53.302;5.786;2023-01-24T04:30:15;21.30;;;13.50;;
57241;SDS011;43095;53.302;5.786;2023-01-24T04:32:54;19.77;;;12.88;;
57241;SDS011;43095;53.302;5.786;2023-01-24T04:35:30;19.95;;;13.18;;
57241;SDS011;43095;53.302;5.786;2023-01-24T04:38:22;18.63;;;13.07;;
57241;SDS011;43095;53.302;5.786;2023-01-24T04:43:45;18.40;;;12.40;;
57241;SDS011;43095;53.302;5.786;2023-01-24T04:46:15;18.38;;;12.63;;
57241;SDS011;43095;53.302;5.786;2023-01-24T04:51:39;19.52;;;12.10;;
57241;SDS011;43095;53.302;5.786;2023-01-24T04:54:20;17.42;;;12.18;;
57241;SDS011;43095;53.302;5.786;2023-01-24T04:56:59;18.55;;;12.93;;
57241;SDS011;43095;53.302;5.786;2023-01-24T04:59:29;19.73;;;13.27;;
57241;SDS011;43095;53.302;5.786;2023-01-24T05:02:23;20.30;;;14.48;;
57241;SDS011;43095;53.302;5.786;2023-01-24T05:04:57;18.70;;;12.75;;
57241;SDS011;43095;53.302;5.786;2023-01-24T05:10:12;17.95;;;12.50;;
57241;SDS011;43095;53.302;5.786;2023-01-24T05:12:47;17.52;;;12.30;;
57241;SDS011;43095;53.302;5.786;2023-01-24T05:17:54;19.45;;;13.40;;
57241;SDS011;43095;53.302;5.786;2023-01-24T05:20:44;17.90;;;13.65;;
57241;SDS011;43095;53.302;5.786;2023-01-24T05:23:16;18.90;;;13.13;;
57241;SDS011;43095;53.302;5.786;2023-01-24T05:26:09;20.30;;;13.07;;
57241;SDS011;43095;53.302;5.786;2023-01-24T05:28:45;22.90;;;13.55;;
57241;SDS011;43095;53.302;5.786;2023-01-24T05:31:24;19.92;;;13.23;;
57241;SDS011;43095;53.302;5.786;2023-01-24T05:34:00;20.85;;;14.00;;
57241;SDS011;43095;53.302;5.786;2023-01-24T05:36:34;19.80;;;13.27;;
57241;SDS011;43095;53.302;5.786;2023-01-24T05:39:26;19.20;;;13.60;;
57241;SDS011;43095;53.302;5.786;2023-01-24T05:41:56;17.83;;;13.35;;
57241;SDS011;43095;53.302;5.786;2023-01-24T05:44:33;18.73;;;13.95;;
57241;SDS011;43095;53.302;5.786;2023-01-24T05:47:06;20.13;;;13.90;;
57241;SDS011;43095;53.302;5.786;2023-01-24T05:49:37;21.75;;;13.77;;
57241;SDS011;43095;53.302;5.786;2023-01-24T05:52:26;21.02;;;13.20;;
57241;SDS011;43095;53.302;5.786;2023-01-24T05:55:04;20.15;;;13.52;;
57241;SDS011;43095;53.302;5.786;2023-01-24T05:57:49;20.48;;;13.15;;
57241;SDS011;43095;53.302;5.786;2023-01-24T06:00:17;20.85;;;12.85;;
57241;SDS011;43095;53.302;5.786;2023-01-24T06:03:08;19.40;;;12.95;;
57241;SDS011;43095;53.302;5.786;2023-01-24T06:05:44;17.73;;;11.73;;
57241;SDS011;43095;53.302;5.786;2023-01-24T06:08:14;16.38;;;11.85;;
57241;SDS011;43095;53.302;5.786;2023-01-24T06:10:44;16.58;;;11.82;;
57241;SDS011;43095;53.302;5.786;2023-01-24T06:13:25;18.10;;;12.73;;
57241;SDS011;43095;53.302;5.786;2023-01-24T06:16:04;17.52;;;12.30;;
57241;SDS011;43095;53.302;5.786;2023-01-24T06:18:38;18.52;;;12.50;;
57241;SDS011;43095;53.302;5.786;2023-01-24T06:26:32;20.67;;;13.65;;
57241;SDS011;43095;53.302;5.786;2023-01-24T06:29:02;20.77;;;13.20;;
57241;SDS011;43095;53.302;5.786;2023-01-24T06:34:39;18.45;;;13.25;;
57241;SDS011;43095;53.302;5.786;2023-01-24T06:37:48;17.48;;;12.38;;
57241;SDS011;43095;53.302;5.786;2023-01-24T06:40:22;16.83;;;12.15;;
57241;SDS011;43095;53.302;5.786;2023-01-24T06:43:06;19.85;;;13.02;;
57241;SDS011;43095;53.302;5.786;2023-01-24T06:45:46;20.10;;;13.60;;
57241;SDS011;43095;53.302;5.786;2023-01-24T06:48:16;21.27;;;14.10;;
57241;SDS011;43095;53.302;5.786;2023-01-24T06:50:51;20.08;;;14.07;;
57241;SDS011;43095;53.302;5.786;2023-01-24T06:53:21;19.73;;;13.75;;
57241;SDS011;43095;53.302;5.786;2023-01-24T06:55:54;20.40;;;12.63;;
57241;SDS011;43095;53.302;5.786;2023-01-24T06:58:44;17.83;;;12.73;;
57241;SDS011;43095;53.302;5.786;2023-01-24T07:01:39;17.67;;;12.35;;
57241;SDS011;43095;53.302;5.786;2023-01-24T07:04:18;22.90;;;14.65;;
57241;SDS011;43095;53.302;5.786;2023-01-24T07:06:49;19.67;;;14.40;;
57241;SDS011;43095;53.302;5.786;2023-01-24T07:09:36;19.98;;;13.60;;
57241;SDS011;43095;53.302;5.786;2023-01-24T07:12:13;23.60;;;16.90;;
57241;SDS011;43095;53.302;5.786;2023-01-24T07:14:45;21.48;;;14.70;;
57241;SDS011;43095;53.302;5.786;2023-01-24T07:17:30;23.10;;;16.13;;
57241;SDS011;43095;53.302;5.786;2023-01-24T07:20:14;24.27;;;16.35;;
57241;SDS011;43095;53.302;5.786;2023-01-24T07:23:22;23.35;;;16.42;;
57241;SDS011;43095;53.302;5.786;2023-01-24T07:25:52;24.10;;;16.55;;
57241;SDS011;43095;53.302;5.786;2023-01-24T07:28:26;23.75;;;16.63;;
57241;SDS011;43095;53.302;5.786;2023-01-24T07:30:59;27.15;;;18.38;;
57241;SDS011;43095;53.302;5.786;2023-01-24T07:33:44;24.17;;;17.13;;
57241;SDS011;43095;53.302;5.786;2023-01-24T07:36:33;25.67;;;16.55;;
57241;SDS011;43095;53.302;5.786;2023-01-24T07:39:00;25.80;;;16.50;;
57241;SDS011;43095;53.302;5.786;2023-01-24T07:41:33;26.23;;;16.73;;
57241;SDS011;43095;53.302;5.786;2023-01-24T07:44:26;23.88;;;16.08;;
57241;SDS011;43095;53.302;5.786;2023-01-24T07:47:17;24.05;;;15.93;;
57241;SDS011;43095;53.302;5.786;2023-01-24T07:49:50;25.88;;;17.63;;
57241;SDS011;43095;53.302;5.786;2023-01-24T07:52:18;25.08;;;17.73;;
57241;SDS011;43095;53.302;5.786;2023-01-24T07:54:48;26.73;;;18.08;;
57241;SDS011;43095;53.302;5.786;2023-01-24T07:57:19;25.60;;;17.63;;
57241;SDS011;43095;53.302;5.786;2023-01-24T07:59:48;26.90;;;18.65;;
57241;SDS011;43095;53.302;5.786;2023-01-24T08:02:40;30.80;;;19.65;;
57241;SDS011;43095;53.302;5.786;2023-01-24T08:05:22;29.77;;;19.80;;
57241;SDS011;43095;53.302;5.786;2023-01-24T08:08:16;31.30;;;20.95;;
57241;SDS011;43095;53.302;5.786;2023-01-24T08:10:51;30.63;;;20.38;;
57241;SDS011;43095;53.302;5.786;2023-01-24T08:13:23;30.58;;;20.35;;
57241;SDS011;43095;53.302;5.786;2023-01-24T08:16:32;29.70;;;20.38;;
57241;SDS011;43095;53.302;5.786;2023-01-24T08:19:11;30.75;;;19.98;;
57241;SDS011;43095;53.302;5.786;2023-01-24T08:22:19;29.88;;;19.90;;
57241;SDS011;43095;53.302;5.786;2023-01-24T08:24:49;29.50;;;20.80;;
57241;SDS011;43095;53.302;5.786;2023-01-24T08:27:27;47.97;;;21.90;;
57241;SDS011;43095;53.302;5.786;2023-01-24T08:29:54;32.40;;;21.42;;
57241;SDS011;43095;53.302;5.786;2023-01-24T08:32:26;30.05;;;20.00;;
57241;SDS011;43095;53.302;5.786;2023-01-24T08:35:15;31.77;;;20.85;;
57241;SDS011;43095;53.302;5.786;2023-01-24T08:37:45;32.58;;;20.90;;
57241;SDS011;43095;53.302;5.786;2023-01-24T08:40:15;30.98;;;20.15;;
57241;SDS011;43095;53.302;5.786;2023-01-24T08:42:59;35.03;;;22.23;;
57241;SDS011;43095;53.302;5.786;2023-01-24T08:45:53;34.28;;;21.30;;
57241;SDS011;43095;53.302;5.786;2023-01-24T08:48:29;35.35;;;20.92;;
57241;SDS011;43095;53.302;5.786;2023-01-24T08:51:07;33.67;;;21.42;;
57241;SDS011;43095;53.302;5.786;2023-01-24T08:53:39;32.20;;;20.90;;
57241;SDS011;43095;53.302;5.786;2023-01-24T08:56:12;33.03;;;21.20;;
57241;SDS011;43095;53.302;5.786;2023-01-24T08:58:43;32.15;;;21.10;;
57241;SDS011;43095;53.302;5.786;2023-01-24T09:01:27;30.77;;;20.25;;
57241;SDS011;43095;53.302;5.786;2023-01-24T09:04:15;32.45;;;21.27;;
57241;SDS011;43095;53.302;5.786;2023-01-24T09:06:45;34.47;;;22.30;;
57241;SDS011;43095;53.302;5.786;2023-01-24T09:09:15;34.08;;;21.98;;
57241;SDS011;43095;53.302;5.786;2023-01-24T09:11:51;31.23;;;20.55;;
57241;SDS011;43095;53.302;5.786;2023-01-24T09:14:25;36.50;;;23.23;;
57241;SDS011;43095;53.302;5.786;2023-01-24T09:16:55;32.13;;;20.13;;
57241;SDS011;43095;53.302;5.786;2023-01-24T09:19:27;34.67;;;22.95;;
57241;SDS011;43095;53.302;5.786;2023-01-24T09:21:58;34.97;;;21.27;;
57241;SDS011;43095;53.302;5.786;2023-01-24T09:24:26;35.90;;;22.08;;
57241;SDS011;43095;53.302;5.786;2023-01-24T09:29:47;32.17;;;20.25;;
57241;SDS011;43095;53.302;5.786;2023-01-24T09:32:31;33.85;;;22.50;;
57241;SDS011;43095;53.302;5.786;2023-01-24T09:35:00;38.42;;;23.50;;
57241;SDS011;43095;53.302;5.786;2023-01-24T09:37:38;38.40;;;22.45;;
57241;SDS011;43095;53.302;5.786;2023-01-24T09:43:21;37.00;;;22.55;;
57241;SDS011;43095;53.302;5.786;2023-01-24T09:46:13;35.72;;;22.45;;
57241;SDS011;43095;53.302;5.786;2023-01-24T09:52:03;36.00;;;22.83;;
57241;SDS011;43095;53.302;5.786;2023-01-24T09:57:31;37.40;;;22.88;;
57241;SDS011;43095;53.302;5.786;2023-01-24T10:00:10;37.05;;;22.00;;
57241;SDS011;43095;53.302;5.786;2023-01-24T10:02:45;38.22;;;23.77;;
57241;SDS011;43095;53.302;5.786;2023-01-24T10:07:56;35.28;;;22.20;;
57241;SDS011;43095;53.302;5.786;2023-01-24T10:10:45;37.08;;;23.25;;
57241;SDS011;43095;53.302;5.786;2023-01-24T10:23:43;38.55;;;23.77;;
57241;SDS011;43095;53.302;5.786;2023-01-24T10:26:25;35.05;;;22.00;;
57241;SDS011;43095;53.302;5.786;2023-01-24T10:29:08;35.63;;;23.65;;
57241;SDS011;43095;53.302;5.786;2023-01-24T10:31:49;37.00;;;23.33;;
57241;SDS011;43095;53.302;5.786;2023-01-24T10:34:38;38.55;;;24.92;;
57241;SDS011;43095;53.302;5.786;2023-01-24T10:39:41;40.13;;;24.17;;
57241;SDS011;43095;53.302;5.786;2023-01-24T10:44:44;34.78;;;22.88;;
57241;SDS011;43095;53.302;5.786;2023-01-24T10:50:44;40.17;;;23.15;;
57241;SDS011;43095;53.302;5.786;2023-01-24T10:53:22;37.58;;;23.45;;
57241;SDS011;43095;53.302;5.786;2023-01-24T10:56:15;34.83;;;20.27;;
57241;SDS011;43095;53.302;5.786;2023-01-24T10:59:03;35.75;;;23.80;;
57241;SDS011;43095;53.302;5.786;2023-01-24T11:02:01;37.22;;;21.35;;
57241;SDS011;43095;53.302;5.786;2023-01-24T11:05:06;34.47;;;22.00;;
57241;SDS011;43095;53.302;5.786;2023-01-24T11:08:01;31.58;;;20.00;;
57241;SDS011;43095;53.302;5.786;2023-01-24T11:11:25;31.27;;;20.27;;
57241;SDS011;43095;53.302;5.786;2023-01-24T11:14:19;37.03;;;21.95;;
57241;SDS011;43095;53.302;5.786;2023-01-24T11:17:31;34.20;;;22.65;;
57241;SDS011;43095;53.302;5.786;2023-01-24T11:23:17;34.88;;;22.23;;
57241;SDS011;43095;53.302;5.786;2023-01-24T11:26:02;35.42;;;22.02;;
57241;SDS011;43095;53.302;5.786;2023-01-24T11:28:44;29.88;;;20.17;;
57241;SDS011;43095;53.302;5.786;2023-01-24T11:31:17;32.33;;;21.50;;
57241;SDS011;43095;53.302;5.786;2023-01-24T11:36:35;30.60;;;21.10;;
57241;SDS011;43095;53.302;5.786;2023-01-24T11:42:00;28.27;;;19.48;;
57241;SDS011;43095;53.302;5.786;2023-01-24T11:47:36;31.00;;;20.27;;
57241;SDS011;43095;53.302;5.786;2023-01-24T11:58:33;29.85;;;20.48;;
57241;SDS011;43095;53.302;5.786;2023-01-24T12:04:07;30.70;;;19.73;;
57241;SDS011;43095;53.302;5.786;2023-01-24T12:07:07;30.95;;;21.02;;
57241;SDS011;43095;53.302;5.786;2023-01-24T12:09:48;33.35;;;22.08;;
57241;SDS011;43095;53.302;5.786;2023-01-24T12:12:41;29.20;;;20.98;;
57241;SDS011;43095;53.302;5.786;2023-01-24T12:23:09;26.08;;;18.27;;
57241;SDS011;43095;53.302;5.786;2023-01-24T12:25:39;28.77;;;19.83;;
57241;SDS011;43095;53.302;5.786;2023-01-24T12:28:17;30.38;;;19.60;;
57241;SDS011;43095;53.302;5.786;2023-01-24T12:37:20;27.35;;;19.02;;
57241;SDS011;43095;53.302;5.786;2023-01-24T12:39:56;27.80;;;19.25;;
57241;SDS011;43095;53.302;5.786;2023-01-24T12:45:21;28.90;;;19.90;;
57241;SDS011;43095;53.302;5.786;2023-01-24T12:48:14;28.67;;;20.60;;
57241;SDS011;43095;53.302;5.786;2023-01-24T12:56:20;32.80;;;21.75;;
57241;SDS011;43095;53.302;5.786;2023-01-24T12:58:52;30.95;;;20.98;;
57241;SDS011;43095;53.302;5.786;2023-01-24T13:01:55;29.02;;;21.27;;
57241;SDS011;43095;53.302;5.786;2023-01-24T13:07:22;30.38;;;21.65;;
57241;SDS011;43095;53.302;5.786;2023-01-24T13:09:59;30.05;;;21.85;;
57241;SDS011;43095;53.302;5.786;2023-01-24T13:12:38;30.17;;;20.98;;
57241;SDS011;43095;53.302;5.786;2023-01-24T13:15:18;31.38;;;21.90;;
57241;SDS011;43095;53.302;5.786;2023-01-24T13:23:23;32.70;;;20.70;;
57241;SDS011;43095;53.302;5.786;2023-01-24T13:34:26;24.95;;;18.42;;
57241;SDS011;43095;53.302;5.786;2023-01-24T13:36:56;27.98;;;18.38;;
57241;SDS011;43095;53.302;5.786;2023-01-24T13:39:32;28.02;;;18.48;;
57241;SDS011;43095;53.302;5.786;2023-01-24T13:42:17;25.48;;;17.95;;
57241;SDS011;43095;53.302;5.786;2023-01-24T13:53:56;25.63;;;17.70;;
57241;SDS011;43095;53.302;5.786;2023-01-24T13:56:24;27.05;;;18.75;;
57241;SDS011;43095;53.302;5.786;2023-01-24T13:58:57;23.73;;;17.33;;
57241;SDS011;43095;53.302;5.786;2023-01-24T14:01:46;25.90;;;17.35;;
57241;SDS011;43095;53.302;5.786;2023-01-24T14:07:28;27.83;;;17.55;;
57241;SDS011;43095;53.302;5.786;2023-01-24T14:10:03;27.98;;;18.75;;
57241;SDS011;43095;53.302;5.786;2023-01-24T14:12:33;26.20;;;18.60;;
57241;SDS011;43095;53.302;5.786;2023-01-24T14:15:26;27.67;;;19.25;;
57241;SDS011;43095;53.302;5.786;2023-01-24T14:17:59;27.38;;;19.23;;
57241;SDS011;43095;53.302;5.786;2023-01-24T14:20:30;29.65;;;20.58;;
57241;SDS011;43095;53.302;5.786;2023-01-24T14:23:29;28.85;;;20.25;;
57241;SDS011;43095;53.302;5.786;2023-01-24T14:26:00;29.05;;;19.17;;
57241;SDS011;43095;53.302;5.786;2023-01-24T14:28:45;28.67;;;18.85;;
57241;SDS011;43095;53.302;5.786;2023-01-24T14:31:35;30.55;;;20.65;;
57241;SDS011;43095;53.302;5.786;2023-01-24T14:34:18;27.10;;;18.77;;
57241;SDS011;43095;53.302;5.786;2023-01-24T14:36:56;28.65;;;20.80;;
57241;SDS011;43095;53.302;5.786;2023-01-24T14:39:27;32.33;;;21.55;;
57241;SDS011;43095;53.302;5.786;2023-01-24T14:41:57;30.40;;;20.83;;
57241;SDS011;43095;53.302;5.786;2023-01-24T14:44:37;29.90;;;20.60;;
57241;SDS011;43095;53.302;5.786;2023-01-24T14:47:17;28.00;;;19.73;;
57241;SDS011;43095;53.302;5.786;2023-01-24T14:49:47;29.05;;;19.17;;
57241;SDS011;43095;53.302;5.786;2023-01-24T14:52:22;31.88;;;21.75;;
57241;SDS011;43095;53.302;5.786;2023-01-24T14:57:44;32.78;;;20.60;;
57241;SDS011;43095;53.302;5.786;2023-01-24T15:02:55;30.65;;;20.40;;
57241;SDS011;43095;53.302;5.786;2023-01-24T15:05:35;27.70;;;18.77;;
57241;SDS011;43095;53.302;5.786;2023-01-24T15:08:14;29.67;;;20.15;;
57241;SDS011;43095;53.302;5.786;2023-01-24T15:10:55;27.95;;;18.75;;
57241;SDS011;43095;53.302;5.786;2023-01-24T15:13:34;28.73;;;19.17;;
57241;SDS011;43095;53.302;5.786;2023-01-24T15:16:15;27.88;;;19.02;;
57241;SDS011;43095;53.302;5.786;2023-01-24T15:18:48;25.77;;;18.80;;
57241;SDS011;43095;53.302;5.786;2023-01-24T15:21:31;29.02;;;19.58;;
57241;SDS011;43095;53.302;5.786;2023-01-24T15:26:52;26.02;;;18.73;;
57241;SDS011;43095;53.302;5.786;2023-01-24T15:30:24;31.00;;;20.00;;
57241;SDS011;43095;53.302;5.786;2023-01-24T15:32:21;32.10;;;21.42;;
57241;SDS011;43095;53.302;5.786;2023-01-24T15:43:22;31.20;;;20.08;;
57241;SDS011;43095;53.302;5.786;2023-01-24T15:46:21;28.27;;;19.33;;
57241;SDS011;43095;53.302;5.786;2023-01-24T15:54:46;29.30;;;20.00;;
57241;SDS011;43095;53.302;5.786;2023-01-24T15:57:33;30.65;;;20.25;;
57241;SDS011;43095;53.302;5.786;2023-01-24T16:02:46;32.83;;;21.33;;
57241;SDS011;43095;53.302;5.786;2023-01-24T16:05:24;28.88;;;20.58;;
57241;SDS011;43095;53.302;5.786;2023-01-24T16:08:07;30.52;;;20.73;;
57241;SDS011;43095;53.302;5.786;2023-01-24T16:10:45;30.35;;;21.63;;
57241;SDS011;43095;53.302;5.786;2023-01-24T16:13:36;34.15;;;20.75;;
57241;SDS011;43095;53.302;5.786;2023-01-24T16:16:09;32.25;;;22.00;;
57241;SDS011;43095;53.302;5.786;2023-01-24T16:19:01;31.67;;;21.75;;
57241;SDS011;43095;53.302;5.786;2023-01-24T16:21:31;33.78;;;22.10;;
57241;SDS011;43095;53.302;5.786;2023-01-24T16:24:08;30.27;;;21.20;;
57241;SDS011;43095;53.302;5.786;2023-01-24T16:26:53;33.20;;;21.75;;
57241;SDS011;43095;53.302;5.786;2023-01-24T16:29:30;31.50;;;21.80;;
57241;SDS011;43095;53.302;5.786;2023-01-24T16:32:02;34.60;;;22.65;;
57241;SDS011;43095;53.302;5.786;2023-01-24T16:34:36;33.17;;;21.75;;
57241;SDS011;43095;53.302;5.786;2023-01-24T16:37:15;30.58;;;21.23;;
57241;SDS011;43095;53.302;5.786;2023-01-24T16:40:12;34.58;;;22.02;;
57241;SDS011;43095;53.302;5.786;2023-01-24T16:42:49;32.15;;;21.48;;
57241;SDS011;43095;53.302;5.786;2023-01-24T16:45:20;33.22;;;21.23;;
57241;SDS011;43095;53.302;5.786;2023-01-24T16:47:54;33.00;;;22.08;;
57241;SDS011;43095;53.302;5.786;2023-01-24T16:50:25;32.03;;;21.63;;
57241;SDS011;43095;53.302;5.786;2023-01-24T16:53:00;33.00;;;21.65;;
57241;SDS011;43095;53.302;5.786;2023-01-24T16:55:34;33.65;;;22.42;;
57241;SDS011;43095;53.302;5.786;2023-01-24T16:58:22;34.35;;;22.42;;
57241;SDS011;43095;53.302;5.786;2023-01-24T17:01:07;34.05;;;21.52;;
57241;SDS011;43095;53.302;5.786;2023-01-24T17:03:44;32.03;;;22.30;;
57241;SDS011;43095;53.302;5.786;2023-01-24T17:06:16;33.50;;;21.55;;
57241;SDS011;43095;53.302;5.786;2023-01-24T17:08:54;34.05;;;21.92;;
57241;SDS011;43095;53.302;5.786;2023-01-24T17:11:32;32.63;;;21.42;;
57241;SDS011;43095;53.302;5.786;2023-01-24T17:14:04;32.45;;;21.50;;
57241;SDS011;43095;53.302;5.786;2023-01-24T17:16:32;32.97;;;20.55;;
57241;SDS011;43095;53.302;5.786;2023-01-24T17:19:03;30.77;;;19.63;;
57241;SDS011;43095;53.302;5.786;2023-01-24T17:21:55;30.95;;;20.02;;
57241;SDS011;43095;53.302;5.786;2023-01-24T17:24:26;31.95;;;19.88;;
57241;SDS011;43095;53.302;5.786;2023-01-24T17:26:56;32.80;;;21.05;;
57241;SDS011;43095;53.302;5.786;2023-01-24T17:29:30;33.70;;;20.70;;
57241;SDS011;43095;53.302;5.786;2023-01-24T17:32:22;35.30;;;21.48;;
57241;SDS011;43095;53.302;5.786;2023-01-24T17:37:50;30.73;;;20.05;;
57241;SDS011;43095;53.302;5.786;2023-01-24T17:41:04;32.65;;;20.48;;
57241;SDS011;43095;53.302;5.786;2023-01-24T17:43:40;32.65;;;20.05;;
57241;SDS011;43095;53.302;5.786;2023-01-24T17:46:19;30.38;;;19.95;;
57241;SDS011;43095;53.302;5.786;2023-01-24T17:48:51;35.78;;;21.33;;
57241;SDS011;43095;53.302;5.786;2023-01-24T17:51:54;31.80;;;20.25;;
57241;SDS011;43095;53.302;5.786;2023-01-24T17:54:44;31.63;;;20.15;;
57241;SDS011;43095;53.302;5.786;2023-01-24T17:57:23;30.98;;;19.83;;
57241;SDS011;43095;53.302;5.786;2023-01-24T17:59:54;33.58;;;20.45;;
57241;SDS011;43095;53.302;5.786;2023-01-24T18:02:39;32.05;;;19.67;;
57241;SDS011;43095;53.302;5.786;2023-01-24T18:05:13;31.35;;;19.52;;
57241;SDS011;43095;53.302;5.786;2023-01-24T18:07:49;30.45;;;19.33;;
57241;SDS011;43095;53.302;5.786;2023-01-24T18:10:19;30.30;;;19.13;;
57241;SDS011;43095;53.302;5.786;2023-01-24T18:13:07;31.08;;;20.63;;
57241;SDS011;43095;53.302;5.786;2023-01-24T18:15:37;31.73;;;19.98;;
57241;SDS011;43095;53.302;5.786;2023-01-24T18:18:11;33.72;;;22.23;;
57241;SDS011;43095;53.302;5.786;2023-01-24T18:20:53;34.78;;;20.98;;
57241;SDS011;43095;53.302;5.786;2023-01-24T18:23:29;36.30;;;22.48;;
57241;SDS011;43095;53.302;5.786;2023-01-24T18:25:59;36.85;;;23.33;;
57241;SDS011;43095;53.302;5.786;2023-01-24T18:28:33;35.83;;;21.58;;
57241;SDS011;43095;53.302;5.786;2023-01-24T18:31:07;31.85;;;20.75;;
57241;SDS011;43095;53.302;5.786;2023-01-24T18:33:40;30.88;;;19.42;;
57241;SDS011;43095;53.302;5.786;2023-01-24T18:36:15;32.08;;;19.35;;
57241;SDS011;43095;53.302;5.786;2023-01-24T18:38:43;35.95;;;22.45;;
57241;SDS011;43095;53.302;5.786;2023-01-24T18:41:17;32.53;;;20.63;;
57241;SDS011;43095;53.302;5.786;2023-01-24T18:43:56;33.75;;;21.02;;